Time;durP1;ratioP1;P1;durP2;ratioP2;P2;SDS_P1;SDS_P2;PMS_P1;PMS_P2;Temp;Humidity;BMP_temperature;BMP_pressure;BME280_temperature;BME280_humidity;BME280_pressure;Samples;Min_cycle;Max_cycle;Signal;HPM_P1;HPM_P2
2021/06/24 00:01:01;;;;;;;24.12;11.45;;;;;;;23.08;100.00;100798.53;1670799;84;21968;-55
2021/06/24 00:03:30;;;;;;;34.08;13.05;;;;;;;23.07;100.00;100795.44;1720453;82;21438;-54
2021/06/24 00:05:57;;;;;;;35.05;11.93;;;;;;;23.08;100.00;100805.89;1721533;82;20921;-55
2021/06/24 00:08:24;;;;;;;20.90;10.10;;;;;;;23.07;100.00;100802.79;1717483;82;21161;-54
2021/06/24 00:10:52;;;;;;;19.02;10.45;;;;;;;23.00;100.00;100792.88;1716937;82;21072;-56
2021/06/24 00:13:19;;;;;;;21.15;9.90;;;;;;;22.96;100.00;100796.37;1723950;82;21502;-55
2021/06/24 00:15:45;;;;;;;23.05;9.98;;;;;;;22.93;100.00;100793.06;1716142;82;21588;-55
2021/06/24 00:18:12;;;;;;;29.50;11.10;;;;;;;22.93;100.00;100780.77;1743471;80;20998;-54
2021/06/24 00:20:39;;;;;;;41.88;11.53;;;;;;;22.96;100.00;100784.07;1732463;81;21403;-55
2021/06/24 00:23:07;;;;;;;22.07;10.23;;;;;;;22.98;100.00;100779.85;1736565;81;21036;-55
2021/06/24 00:25:33;;;;;;;24.63;10.23;;;;;;;22.97;100.00;100774.87;1735215;81;21110;-55
2021/06/24 00:28:01;;;;;;;38.17;10.60;;;;;;;22.98;100.00;100779.34;1734452;81;21105;-55
2021/06/24 00:30:27;;;;;;;19.75;9.95;;;;;;;22.97;100.00;100777.60;1733276;81;21044;-54
2021/06/24 00:32:54;;;;;;;25.82;10.70;;;;;;;22.96;100.00;100780.48;1734800;81;20992;-55
2021/06/24 00:35:21;;;;;;;25.37;9.38;;;;;;;22.93;100.00;100777.52;1735753;81;20922;-55
2021/06/24 00:37:47;;;;;;;25.72;11.10;;;;;;;22.91;100.00;100774.56;1735765;81;21044;-55
2021/06/24 00:40:14;;;;;;;29.15;11.73;;;;;;;22.85;100.00;100768.61;1716054;81;21612;-55
2021/06/24 00:42:41;;;;;;;28.42;12.10;;;;;;;22.84;100.00;100764.14;1735954;81;21050;-55
2021/06/24 00:45:10;;;;;;;30.43;12.70;;;;;;;22.86;100.00;100773.08;1733768;81;21576;-55
2021/06/24 00:47:39;;;;;;;40.20;14.28;;;;;;;22.84;100.00;100772.34;1718224;81;21448;-55
2021/06/24 00:50:08;;;;;;;41.45;14.85;;;;;;;22.79;100.00;100765.05;1735286;81;20957;-55
2021/06/24 00:52:35;;;;;;;43.28;12.65;;;;;;;22.78;100.00;100765.20;1730702;81;21516;-55
2021/06/24 00:55:02;;;;;;;37.15;14.23;;;;;;;22.78;100.00;100773.41;1735987;81;21466;-56
2021/06/24 00:57:29;;;;;;;28.38;10.90;;;;;;;22.77;100.00;100772.52;1733548;81;21035;-55
2021/06/24 00:59:55;;;;;;;28.12;10.93;;;;;;;22.75;100.00;100779.47;1733382;81;21006;-56
2021/06/24 01:02:23;;;;;;;18.40;9.93;;;;;;;22.72;100.00;100767.96;1733788;81;34757;-55
2021/06/24 01:04:49;;;;;;;21.85;9.80;;;;;;;22.68;100.00;100774.70;1717537;81;21105;-55
2021/06/24 01:07:16;;;;;;;23.57;9.68;;;;;;;22.64;100.00;100775.94;1743306;80;20987;-56
2021/06/24 01:09:44;;;;;;;22.65;9.48;;;;;;;22.61;100.00;100768.38;1737491;80;21555;-56
2021/06/24 01:12:12;;;;;;;24.47;9.90;;;;;;;22.59;100.00;100769.01;1734245;81;21076;-56
2021/06/24 01:14:38;;;;;;;23.67;9.15;;;;;;;22.58;100.00;100765.91;1717110;81;21457;-56
2021/06/24 01:17:05;;;;;;;26.15;8.20;;;;;;;22.56;100.00;100761.59;1691557;83;21121;-56
2021/06/24 01:19:33;;;;;;;15.58;8.45;;;;;;;22.54;100.00;100767.17;1664434;84;21540;-55
2021/06/24 01:22:02;;;;;;;28.47;8.80;;;;;;;22.53;100.00;100775.00;1688064;83;21097;-56
2021/06/24 01:24:29;;;;;;;19.23;8.95;;;;;;;22.54;100.00;100771.75;1690384;83;21566;-56
2021/06/24 01:26:56;;;;;;;30.68;9.23;;;;;;;22.56;100.00;100769.27;1686242;83;21457;-56
2021/06/24 01:29:23;;;;;;;25.75;9.85;;;;;;;22.57;100.00;100762.81;1684937;83;21534;-56
2021/06/24 01:31:49;;;;;;;31.52;9.93;;;;;;;22.59;100.00;100765.42;1689321;83;20983;-57
2021/06/24 01:34:16;;;;;;;36.77;10.85;;;;;;;22.60;100.00;100768.01;1648537;85;21692;-56
2021/06/24 01:36:43;;;;;;;36.25;11.20;;;;;;;22.59;100.00;100764.91;1628065;86;20934;-56
2021/06/24 01:39:12;;;;;;;29.20;10.70;;;;;;;22.59;100.00;100767.64;1626358;87;21677;-56
2021/06/24 01:41:38;;;;;;;41.63;11.08;;;;;;;22.58;100.00;100768.64;1688117;83;21121;-56
2021/06/24 01:44:06;;;;;;;27.00;11.20;;;;;;;22.55;100.00;100782.56;1687792;83;21421;-57
2021/06/24 01:46:33;;;;;;;30.90;10.70;;;;;;;22.51;100.00;100781.10;1682197;83;20891;-57
2021/06/24 01:49:00;;;;;;;27.52;9.85;;;;;;;22.50;100.00;100787.56;1685391;83;21060;-56
2021/06/24 01:51:27;;;;;;;25.40;10.40;;;;;;;22.50;100.00;100779.86;1688725;83;20937;-57
2021/06/24 01:53:53;;;;;;;26.20;9.73;;;;;;;22.46;100.00;100779.23;1689049;82;21105;-57
2021/06/24 01:56:22;;;;;;;19.85;9.30;;;;;;;22.46;100.00;100780.61;1682290;83;21564;-56
2021/06/24 01:58:49;;;;;;;23.02;9.63;;;;;;;22.45;100.00;100774.77;1688127;83;21554;-57
2021/06/24 02:01:17;;;;;;;24.25;9.53;;;;;;;22.43;100.00;100763.08;1687099;83;21446;-57
2021/06/24 02:03:49;;;;;;;18.98;9.50;;;;;;;22.42;100.00;100770.42;1672646;83;21060;-57
2021/06/24 02:06:17;;;;;;;19.57;9.00;;;;;;;22.42;100.00;100769.55;1687791;83;21933;-57
2021/06/24 02:08:44;;;;;;;25.37;10.35;;;;;;;22.41;100.00;100774.64;1688139;83;21041;-57
2021/06/24 02:11:22;;;;;;;22.58;10.32;;;;;;;22.38;100.00;100766.23;1687991;83;21368;-56
2021/06/24 02:13:51;;;;;;;19.52;9.98;;;;;;;22.38;100.00;100768.95;1688480;83;21106;-56
2021/06/24 02:16:18;;;;;;;19.35;10.40;;;;;;;22.41;100.00;100759.62;1688591;83;21351;-57
2021/06/24 02:18:45;;;;;;;30.27;10.43;;;;;;;22.45;100.00;100766.58;1691648;81;21778;-57
2021/06/24 02:21:14;;;;;;;21.75;10.60;;;;;;;22.46;100.00;100762.84;1710956;82;20967;-56
2021/06/24 02:23:45;;;;;;;27.62;10.20;;;;;;;22.48;100.00;100765.46;1707887;82;21070;-56
2021/06/24 02:26:23;;;;;;;24.18;10.35;;;;;;;22.48;100.00;100755.90;1707995;82;21026;-59
2021/06/24 02:28:52;;;;;;;20.02;10.25;;;;;;;22.50;100.00;100762.98;1712450;82;21103;-56
2021/06/24 02:31:29;;;;;;;31.77;9.98;;;;;;;22.53;100.00;100761.83;1705820;82;22489;-56
2021/06/24 02:33:57;;;;;;;17.98;10.53;;;;;;;22.53;100.00;100764.08;1677230;84;21016;-56
2021/06/24 02:36:25;;;;;;;27.62;11.40;;;;;;;22.53;100.00;100758.61;1705947;82;21687;-56
2021/06/24 02:38:52;;;;;;;28.20;13.83;;;;;;;22.54;100.00;100757.61;1739085;80;22052;-55
2021/06/24 02:41:20;;;;;;;29.45;12.50;;;;;;;22.56;100.00;100761.08;1716986;82;21330;-58
2021/06/24 02:43:47;;;;;;;31.33;11.50;;;;;;;22.57;100.00;100753.25;1712845;82;21568;-58
2021/06/24 02:46:15;;;;;;;29.02;12.10;;;;;;;22.60;100.00;100758.45;1693491;82;21397;-55
2021/06/24 02:48:43;;;;;;;27.75;11.35;;;;;;;22.63;100.00;100759.17;1708774;82;22224;-57
2021/06/24 02:51:10;;;;;;;18.20;10.55;;;;;;;22.68;100.00;100759.67;1689598;82;21560;-57
2021/06/24 02:53:50;;;;;;;19.50;11.08;;;;;;;22.75;100.00;100760.86;1711752;82;21056;-58
2021/06/24 02:56:23;;;;;;;31.55;10.93;;;;;;;22.80;100.00;100755.85;1714128;82;21409;-58
2021/06/24 02:58:50;;;;;;;24.02;10.32;;;;;;;22.86;100.00;100756.67;1703101;83;20976;-56
2021/06/24 03:01:19;;;;;;;30.08;11.12;;;;;;;22.94;100.00;100757.38;1708421;82;21027;-55
2021/06/24 03:03:50;;;;;;;29.45;12.13;;;;;;;23.00;100.00;100763.69;1713844;82;21438;-56
2021/06/24 03:06:18;;;;;;;24.20;11.70;;;;;;;23.07;100.00;100766.73;1717411;82;21138;-58
2021/06/24 03:08:45;;;;;;;30.25;11.83;;;;;;;23.14;100.00;100772.53;1693114;82;21618;-56
2021/06/24 03:11:14;;;;;;;23.20;11.38;;;;;;;23.20;100.00;100769.77;1671917;84;21901;-56
2021/06/24 03:13:45;;;;;;;34.73;11.97;;;;;;;23.24;100.00;100761.64;1715459;82;22067;-56
2021/06/24 03:16:12;;;;;;;28.70;12.50;;;;;;;23.29;100.00;100762.13;1709494;82;21003;-57
2021/06/24 03:18:40;;;;;;;27.58;11.85;;;;;;;23.37;100.00;100760.08;1714831;80;20983;-56
2021/06/24 03:21:08;;;;;;;23.73;10.65;;;;;;;23.45;100.00;100767.96;1711690;82;21890;-57
2021/06/24 03:23:35;;;;;;;37.95;11.55;;;;;;;23.52;100.00;100774.23;1713979;82;21740;-57
2021/06/24 03:26:02;;;;;;;16.80;10.05;;;;;;;23.62;100.00;100784.73;1713779;82;21509;-56
2021/06/24 03:28:29;;;;;;;23.50;10.28;;;;;;;23.73;100.00;100773.67;1716240;81;21447;-57
2021/06/24 03:31:15;;;;;;;21.00;10.25;;;;;;;23.85;100.00;100779.89;1706793;82;21073;-56
2021/06/24 03:33:42;;;;;;;23.73;10.48;;;;;;;23.97;100.00;100777.91;1695757;83;21063;-56
2021/06/24 03:36:09;;;;;;;23.38;10.82;;;;;;;24.10;100.00;100785.03;1687072;83;21377;-59
2021/06/24 03:38:38;;;;;;;27.80;10.75;;;;;;;24.21;100.00;100781.30;1710462;82;20953;-57
2021/06/24 03:41:06;;;;;;;27.15;10.68;;;;;;;24.32;100.00;100783.92;1707857;82;21092;-58
2021/06/24 03:43:32;;;;;;;28.23;10.58;;;;;;;24.46;100.00;100793.06;1706162;82;21003;-57
2021/06/24 03:45:59;;;;;;;25.48;10.90;;;;;;;24.54;98.96;100792.87;1704324;82;21106;-57
2021/06/24 03:48:28;;;;;;;24.23;10.32;;;;;;;24.63;98.38;100789.73;1709172;82;21086;-56
2021/06/24 03:50:57;;;;;;;21.12;10.08;;;;;;;24.75;97.30;100796.33;1710765;82;20916;-56
2021/06/24 03:53:23;;;;;;;21.12;9.90;;;;;;;24.86;96.09;100795.83;1708007;82;21620;-57
2021/06/24 03:55:51;;;;;;;20.20;10.15;;;;;;;24.93;95.16;100792.00;1687826;82;21434;-56
2021/06/24 03:58:28;;;;;;;25.97;10.72;;;;;;;24.98;94.40;100785.55;1709861;82;21547;-57
2021/06/24 04:00:54;;;;;;;27.05;11.60;;;;;;;25.06;93.64;100787.05;1711491;82;21373;-59
2021/06/24 04:03:22;;;;;;;27.82;9.35;;;;;;;25.13;92.91;100783.20;1687739;82;21185;-56
2021/06/24 04:05:51;;;;;;;20.95;9.95;;;;;;;25.18;92.03;100775.39;1708080;82;21502;-56
2021/06/24 04:08:18;;;;;;;29.30;10.82;;;;;;;25.25;92.04;100775.66;1706734;82;20995;-59
2021/06/24 04:10:45;;;;;;;22.35;9.63;;;;;;;25.35;91.55;100777.88;1685984;82;21906;-56
2021/06/24 04:13:11;;;;;;;28.52;10.32;;;;;;;25.42;91.20;100770.77;1711486;82;21386;-56
2021/06/24 04:15:39;;;;;;;23.57;10.25;;;;;;;25.55;90.72;100770.97;1708512;82;21283;-58
2021/06/24 04:18:06;;;;;;;29.40;12.13;;;;;;;25.70;89.97;100768.58;1711798;82;21027;-59
2021/06/24 04:20:35;;;;;;;31.48;11.57;;;;;;;25.87;88.93;100763.64;1680932;83;21578;-58
2021/06/24 04:23:03;;;;;;;38.58;13.40;;;;;;;26.07;88.20;100768.98;1742483;80;22239;-58
2021/06/24 04:25:33;;;;;;;34.50;14.25;;;;;;;26.27;87.24;100771.63;1741023;80;20893;-59
2021/06/24 04:28:01;;;;;;;36.05;14.10;;;;;;;26.44;86.06;100772.67;1744335;80;21048;-58
2021/06/24 04:30:28;;;;;;;31.68;13.45;;;;;;;26.60;85.13;100775.54;1743236;80;21323;-58
2021/06/24 04:32:56;;;;;;;34.92;12.23;;;;;;;26.79;84.59;100783.26;1745330;80;20932;-59
2021/06/24 04:35:25;;;;;;;27.65;13.62;;;;;;;26.92;83.81;100784.25;1749874;80;21871;-58
2021/06/24 04:37:52;;;;;;;32.15;14.33;;;;;;;27.01;83.53;100787.42;1743577;80;21462;-58
2021/06/24 04:40:19;;;;;;;40.67;15.85;;;;;;;27.09;83.21;100785.25;1745467;80;21516;-58
2021/06/24 04:42:47;;;;;;;41.02;14.95;;;;;;;27.20;82.60;100786.86;1747150;80;21277;-58
2021/06/24 04:45:16;;;;;;;37.38;13.95;;;;;;;27.26;81.72;100782.57;1742392;80;20991;-58
2021/06/24 04:47:51;;;;;;;26.10;13.08;;;;;;;27.34;81.28;100784.02;1741885;80;22267;-59
2021/06/24 04:50:17;;;;;;;30.45;12.63;;;;;;;27.45;80.39;100778.73;1746866;80;21599;-58
2021/06/24 04:52:51;;;;;;;33.00;11.68;;;;;;;27.56;79.63;100787.26;1748126;80;20920;-58
2021/06/24 04:55:40;;;;;;;34.18;11.65;;;;;;;27.68;78.76;100792.80;1741430;80;20955;-59
2021/06/24 04:58:09;;;;;;;25.32;10.40;;;;;;;27.81;77.98;100794.24;1747577;80;21103;-59
2021/06/24 05:00:36;;;;;;;25.30;10.35;;;;;;;27.94;77.36;100787.72;1745843;80;21558;-58
2021/06/24 05:03:11;;;;;;;28.83;10.85;;;;;;;28.03;76.94;100785.86;1746685;80;34732;-59
2021/06/24 05:05:43;;;;;;;31.27;8.93;;;;;;;28.16;76.52;100775.76;1750811;80;22767;-59
2021/06/24 05:08:17;;;;;;;35.92;10.00;;;;;;;28.30;75.37;100779.23;1750200;80;21040;-59
2021/06/24 05:10:41;;;;;;;38.78;9.88;;;;;;;28.38;74.85;100781.65;1744986;80;21018;-59
2021/06/24 05:13:08;;;;;;;30.72;10.88;;;;;;;28.43;74.86;100783.41;1745473;80;21102;-58
2021/06/24 05:15:34;;;;;;;42.93;11.85;;;;;;;28.47;74.71;100793.05;1744900;80;21096;-58
2021/06/24 05:18:03;;;;;;;32.93;12.80;;;;;;;28.50;74.97;100799.59;1750057;80;21489;-58
2021/06/24 05:20:30;;;;;;;35.10;12.60;;;;;;;28.55;74.67;100802.70;1742952;80;20993;-58
2021/06/24 05:22:56;;;;;;;34.83;14.18;;;;;;;28.61;74.44;100806.67;1741288;80;21153;-58
2021/06/24 05:25:23;;;;;;;40.08;15.30;;;;;;;28.68;74.05;100812.37;1742490;80;21933;-59
2021/06/24 05:27:51;;;;;;;38.98;14.68;;;;;;;28.71;73.60;100810.64;1740611;80;20982;-59
2021/06/24 05:30:19;;;;;;;29.57;11.75;;;;;;;28.74;73.15;100819.95;1740949;80;21088;-58
2021/06/24 05:32:45;;;;;;;32.08;11.35;;;;;;;28.75;73.22;100816.16;1736397;80;21668;-58
2021/06/24 05:35:12;;;;;;;40.40;11.45;;;;;;;28.74;73.34;100816.69;1743141;80;21084;-58
2021/06/24 05:37:39;;;;;;;32.10;11.00;;;;;;;28.73;73.59;100820.45;1740214;80;21451;-59
2021/06/24 05:40:08;;;;;;;36.83;10.93;;;;;;;28.75;73.58;100814.77;1698425;82;20889;-57
2021/06/24 05:42:35;;;;;;;33.92;10.95;;;;;;;28.76;73.78;100822.02;1690987;82;21164;-57
2021/06/24 05:45:03;;;;;;;28.67;10.68;;;;;;;28.81;73.99;100816.87;1697517;82;21072;-57
2021/06/24 05:47:30;;;;;;;32.55;10.45;;;;;;;28.91;74.08;100815.84;1705168;82;21286;-56
2021/06/24 05:49:56;;;;;;;37.67;11.38;;;;;;;29.02;73.71;100813.59;1706164;82;21052;-56
2021/06/24 05:52:22;;;;;;;30.23;9.83;;;;;;;29.15;73.33;100817.20;1708377;82;21004;-58
2021/06/24 05:54:49;;;;;;;24.92;10.25;;;;;;;29.22;73.05;100815.98;1705964;82;21418;-58
2021/06/24 05:57:16;;;;;;;31.05;10.90;;;;;;;29.30;72.39;100816.49;1693441;82;21518;-57
2021/06/24 05:59:42;;;;;;;33.02;10.78;;;;;;;29.37;72.28;100821.64;1690542;83;21011;-57
2021/06/24 06:02:08;;;;;;;32.38;11.80;;;;;;;29.45;71.90;100824.41;1694241;82;34077;-57
2021/06/24 06:04:35;;;;;;;30.32;10.38;;;;;;;29.53;70.59;100829.58;1741818;80;21097;-57
2021/06/24 06:07:07;;;;;;;37.48;9.35;;;;;;;29.59;70.50;100820.58;1739481;80;20949;-57
2021/06/24 06:09:35;;;;;;;22.35;7.72;;;;;;;29.67;68.13;100828.82;1736596;80;21628;-57
2021/06/24 06:12:05;;;;;;;30.00;7.80;;;;;;;29.63;66.81;100826.62;1740365;80;21499;-58
2021/06/24 06:14:32;;;;;;;24.00;7.87;;;;;;;29.67;66.56;100828.82;1742125;80;21577;-58
2021/06/24 06:16:59;;;;;;;27.80;7.33;;;;;;;29.75;65.85;100825.70;1740710;80;21400;-57
2021/06/24 06:19:26;;;;;;;33.58;6.67;;;;;;;29.80;65.20;100823.27;1743834;80;21008;-57
2021/06/24 06:21:53;;;;;;;28.15;7.40;;;;;;;29.84;64.36;100828.77;1749125;80;21064;-57
2021/06/24 06:24:20;;;;;;;23.57;6.67;;;;;;;29.96;64.18;100830.61;1749393;80;21473;-57
2021/06/24 06:26:47;;;;;;;25.95;6.65;;;;;;;30.09;63.40;100818.50;1748816;80;21752;-57
2021/06/24 06:29:14;;;;;;;34.67;7.22;;;;;;;30.21;62.92;100810.65;1743070;80;21024;-57
2021/06/24 06:31:41;;;;;;;26.73;6.20;;;;;;;30.29;62.12;100807.82;1745147;80;21029;-59
2021/06/24 06:34:08;;;;;;;29.42;6.80;;;;;;;30.37;61.85;100804.65;1748344;80;21463;-59
2021/06/24 06:36:35;;;;;;;31.50;7.05;;;;;;;30.49;61.73;100805.95;1746180;80;21073;-57
2021/06/24 06:39:02;;;;;;;25.57;6.28;;;;;;;30.62;61.19;100805.88;1747120;80;22404;-59
2021/06/24 06:41:31;;;;;;;25.88;6.42;;;;;;;30.67;60.55;100804.82;1749378;80;21056;-57
2021/06/24 06:43:58;;;;;;;19.73;6.25;;;;;;;30.74;60.29;100811.33;1749509;80;20947;-58
2021/06/24 06:46:25;;;;;;;30.50;6.25;;;;;;;30.80;59.91;100799.50;1747192;80;21477;-58
2021/06/24 06:48:53;;;;;;;26.05;6.70;;;;;;;30.81;59.57;100794.30;1749274;80;21068;-57
2021/06/24 06:51:23;;;;;;;20.62;7.30;;;;;;;30.82;59.79;100795.18;1748626;80;21155;-58
2021/06/24 06:53:50;;;;;;;27.62;7.00;;;;;;;30.85;59.81;100802.59;1732390;80;21475;-57
2021/06/24 06:56:17;;;;;;;26.97;7.85;;;;;;;30.83;59.79;100806.58;1750111;80;20961;-58
2021/06/24 06:58:45;;;;;;;27.67;7.10;;;;;;;30.77;60.01;100805.41;1752002;80;21063;-59
2021/06/24 07:01:11;;;;;;;21.57;6.30;;;;;;;30.75;60.12;100797.83;1738911;80;37075;-57
2021/06/24 07:03:38;;;;;;;37.25;7.17;;;;;;;30.84;59.89;100803.64;1662317;84;21545;-58
2021/06/24 07:06:06;;;;;;;28.87;7.08;;;;;;;30.94;60.02;100796.97;1666542;84;21522;-57
2021/06/24 07:08:33;;;;;;;21.37;6.42;;;;;;;31.03;59.72;100793.06;1661105;84;21018;-58
2021/06/24 07:11:02;;;;;;;23.02;6.03;;;;;;;31.10;58.75;100788.52;1669125;84;20997;-57
2021/06/24 07:13:30;;;;;;;26.40;7.55;;;;;;;31.13;58.73;100792.28;1695122;82;20898;-57
2021/06/24 07:15:57;;;;;;;25.23;6.00;;;;;;;31.18;58.07;100791.72;1700045;82;21915;-56
2021/06/24 07:18:24;;;;;;;26.10;5.72;;;;;;;31.22;58.07;100788.94;1700157;82;21383;-55
2021/06/24 07:20:54;;;;;;;26.65;6.08;;;;;;;31.32;57.85;100801.12;1654142;84;21010;-60
2021/06/24 07:23:20;;;;;;;26.27;6.60;;;;;;;31.42;57.77;100805.00;1650982;84;21878;-57
2021/06/24 07:25:47;;;;;;;27.27;7.40;;;;;;;31.56;57.27;100798.57;1654431;84;21474;-56
2021/06/24 07:28:14;;;;;;;34.33;10.30;;;;;;;31.68;57.03;100805.88;1653543;85;21124;-57
2021/06/24 07:30:41;;;;;;;40.25;12.88;;;;;;;31.78;56.48;100807.53;1655419;84;21071;-57
2021/06/24 07:33:08;;;;;;;32.13;9.80;;;;;;;31.86;56.09;100800.48;1654614;84;20960;-57
2021/06/24 07:35:35;;;;;;;28.50;8.63;;;;;;;31.95;55.80;100789.64;1655628;84;21870;-57
2021/06/24 07:38:04;;;;;;;26.87;7.70;;;;;;;32.09;55.35;100785.62;1653609;84;21644;-57
2021/06/24 07:40:33;;;;;;;32.17;6.95;;;;;;;32.21;55.25;100787.34;1685679;83;21568;-57
2021/06/24 07:43:02;;;;;;;27.20;6.42;;;;;;;32.33;55.01;100789.98;1671822;83;21051;-57
2021/06/24 07:45:28;;;;;;;27.35;7.28;;;;;;;32.40;55.05;100792.28;1698658;82;20951;-58
2021/06/24 07:47:58;;;;;;;31.77;7.03;;;;;;;32.48;55.17;100789.03;1697574;82;20972;-58
2021/06/24 07:50:26;;;;;;;27.85;5.92;;;;;;;32.53;54.67;100787.94;1662103;84;21440;-57
2021/06/24 07:52:53;;;;;;;23.77;5.33;;;;;;;32.65;53.99;100791.03;1699443;82;21807;-57
2021/06/24 07:55:20;;;;;;;33.18;5.40;;;;;;;32.80;53.25;100793.72;1699367;82;21067;-57
2021/06/24 07:57:47;;;;;;;22.48;5.85;;;;;;;32.86;52.94;100792.39;1698924;82;21534;-57
2021/06/24 08:00:15;;;;;;;29.60;5.50;;;;;;;32.91;52.34;100795.12;1700652;82;21514;-58
2021/06/24 08:02:43;;;;;;;30.97;6.15;;;;;;;32.94;52.40;100794.72;1701349;82;21576;-58
2021/06/24 08:05:13;;;;;;;23.32;4.85;;;;;;;33.02;52.18;100793.17;1699081;82;21476;-57
2021/06/24 08:07:44;;;;;;;31.68;5.25;;;;;;;33.02;51.29;100794.55;1700658;82;20956;-58
2021/06/24 08:10:10;;;;;;;25.90;5.08;;;;;;;32.89;51.06;100803.64;1698924;82;20938;-58
2021/06/24 08:12:40;;;;;;;27.05;5.47;;;;;;;32.74;51.72;100796.76;1703202;82;20933;-57
2021/06/24 08:15:10;;;;;;;25.17;5.33;;;;;;;32.65;51.40;100794.65;1701059;82;21028;-59
2021/06/24 08:17:42;;;;;;;29.60;6.78;;;;;;;32.55;51.00;100792.20;1699291;82;21592;-58
2021/06/24 08:20:09;;;;;;;33.30;6.05;;;;;;;32.57;51.09;100798.41;1701916;82;21107;-57
2021/06/24 08:22:36;;;;;;;30.57;6.20;;;;;;;32.55;51.66;100793.59;1666910;83;21103;-58
2021/06/24 08:25:06;;;;;;;29.02;5.72;;;;;;;32.48;51.75;100794.07;1662496;84;21079;-58
2021/06/24 08:27:34;;;;;;;23.20;6.37;;;;;;;32.51;52.29;100783.95;1662797;84;20933;-58
2021/06/24 08:30:03;;;;;;;24.07;6.50;;;;;;;32.63;52.92;100788.98;1661407;84;21887;-58
2021/06/24 08:32:30;;;;;;;26.90;7.22;;;;;;;32.74;52.94;100796.76;1667195;84;21068;-58
2021/06/24 08:34:57;;;;;;;23.85;7.45;;;;;;;32.82;53.01;100793.83;1667431;84;21518;-57
2021/06/24 08:37:26;;;;;;;28.87;7.70;;;;;;;32.84;52.75;100802.84;1663722;84;21494;-58
2021/06/24 08:39:52;;;;;;;36.33;8.15;;;;;;;32.83;52.47;100809.45;1661564;84;21021;-58
2021/06/24 08:42:19;;;;;;;29.50;8.73;;;;;;;32.81;53.01;100804.61;1661479;84;21125;-58
2021/06/24 08:44:46;;;;;;;20.10;8.08;;;;;;;32.75;53.94;100792.92;1659936;84;21057;-58
2021/06/24 08:47:14;;;;;;;21.12;7.83;;;;;;;32.69;54.54;100789.57;1661083;84;21063;-58
2021/06/24 08:49:42;;;;;;;30.45;8.63;;;;;;;32.68;55.08;100794.80;1664427;84;21684;-58
2021/06/24 08:52:09;;;;;;;27.10;8.53;;;;;;;32.67;55.67;100795.85;1661530;84;21503;-58
2021/06/24 08:54:36;;;;;;;31.40;10.10;;;;;;;32.63;55.81;100790.38;1661962;84;21146;-57
2021/06/24 08:57:04;;;;;;;37.30;8.78;;;;;;;32.55;55.97;100792.20;1663571;84;21070;-58
2021/06/24 08:59:31;;;;;;;30.00;8.55;;;;;;;32.53;55.97;100790.71;1667034;84;21088;-58
2021/06/24 09:01:58;;;;;;;26.35;8.55;;;;;;;32.52;55.93;100795.38;1691535;82;32484;-57
2021/06/24 09:04:29;;;;;;;26.62;7.87;;;;;;;32.50;55.94;100794.73;1704486;82;22834;-58
2021/06/24 09:07:10;;;;;;;29.52;8.45;;;;;;;32.51;56.08;100800.61;1705812;82;20939;-58
2021/06/24 09:09:40;;;;;;;36.65;8.68;;;;;;;32.54;55.84;100795.20;1706930;82;20948;-58
2021/06/24 09:12:11;;;;;;;24.77;8.10;;;;;;;32.58;55.61;100796.52;1705526;82;21214;-59
2021/06/24 09:14:44;;;;;;;30.97;8.10;;;;;;;32.63;55.98;100795.93;1710071;82;21012;-58
2021/06/24 09:17:13;;;;;;;26.45;7.55;;;;;;;32.69;55.77;100802.06;1708032;82;20937;-58
2021/06/24 09:19:42;;;;;;;21.73;7.00;;;;;;;32.68;54.96;100790.63;1668630;84;21692;-58
2021/06/24 09:22:12;;;;;;;26.00;6.70;;;;;;;32.61;54.45;100792.47;1726334;80;21567;-58
2021/06/24 09:24:44;;;;;;;20.15;6.20;;;;;;;32.56;54.27;100790.31;1700365;82;21582;-58
2021/06/24 09:27:28;;;;;;;20.55;7.05;;;;;;;32.44;53.96;100798.30;1737561;80;21027;-58
2021/06/24 09:30:11;;;;;;;30.95;7.78;;;;;;;32.28;53.84;100790.53;1735781;80;20985;-58
2021/06/24 09:32:40;;;;;;;28.40;7.35;;;;;;;32.09;54.61;100787.00;1739837;80;21717;-58
2021/06/24 09:35:09;;;;;;;36.33;8.50;;;;;;;31.94;55.13;100785.12;1736492;80;21029;-58
2021/06/24 09:38:03;;;;;;;23.10;7.50;;;;;;;31.85;55.59;100784.40;1742379;80;21007;-58
2021/06/24 09:40:52;;;;;;;20.37;7.40;;;;;;;31.81;55.92;100782.20;1735823;80;21568;-58
2021/06/24 09:43:36;;;;;;;25.97;7.42;;;;;;;31.75;56.08;100778.80;1737346;80;21008;-58
2021/06/24 09:46:18;;;;;;;21.25;7.37;;;;;;;31.70;56.38;100778.83;1741747;80;21458;-58
2021/06/24 09:48:51;;;;;;;24.92;7.80;;;;;;;31.64;56.76;100774.61;1737447;80;21894;-60
2021/06/24 09:51:33;;;;;;;38.05;7.92;;;;;;;31.61;57.47;100770.81;1739243;80;20915;-60
2021/06/24 09:54:15;;;;;;;27.85;8.03;;;;;;;31.64;57.90;100769.91;1741165;80;21017;-60
2021/06/24 09:56:50;;;;;;;32.58;8.13;;;;;;;31.70;58.01;100770.52;1738159;80;21066;-60
2021/06/24 09:59:17;;;;;;;30.77;7.95;;;;;;;31.75;58.20;100773.25;1734388;80;21545;-60
2021/06/24 10:01:46;;;;;;;22.05;7.72;;;;;;;31.78;58.33;100773.73;1736177;80;21405;-59
2021/06/24 10:04:28;;;;;;;33.92;7.83;;;;;;;31.81;58.25;100779.43;1736059;80;21023;-60
2021/06/24 10:07:02;;;;;;;27.67;8.78;;;;;;;31.82;58.23;100770.06;1739219;80;20998;-61
2021/06/24 10:09:30;;;;;;;30.45;8.30;;;;;;;31.80;58.57;100763.86;1740730;80;21495;-60
2021/06/24 10:11:58;;;;;;;31.60;8.73;;;;;;;31.79;59.01;100767.68;1735807;80;21644;-60
2021/06/24 10:14:24;;;;;;;27.85;8.40;;;;;;;31.78;59.13;100766.81;1743152;80;21072;-61
2021/06/24 10:16:56;;;;;;;26.97;8.55;;;;;;;31.71;59.60;100759.76;1737666;80;21110;-61
2021/06/24 10:19:27;;;;;;;28.25;8.68;;;;;;;31.64;60.06;100753.28;1739742;80;21484;-60
2021/06/24 10:22:11;;;;;;;30.32;8.18;;;;;;;31.59;60.38;100757.16;1738703;80;21076;-61
2021/06/24 10:25:09;;;;;;;33.25;7.85;;;;;;;31.55;60.72;100751.69;1749127;80;21046;-61
2021/06/24 10:27:38;;;;;;;23.40;7.00;;;;;;;31.51;61.12;100754.52;1696375;83;21688;-60
2021/06/24 10:30:16;;;;;;;25.32;7.87;;;;;;;31.53;61.57;100753.80;1732603;80;20910;-61
2021/06/24 10:33:11;;;;;;;23.85;8.05;;;;;;;31.52;62.09;100753.46;1746535;80;21123;-60
2021/06/24 10:35:48;;;;;;;25.52;7.83;;;;;;;31.51;62.37;100748.97;1747066;80;21007;-60
2021/06/24 10:38:14;;;;;;;22.32;7.83;;;;;;;31.48;62.73;100745.17;1747611;80;21151;-61
2021/06/24 10:40:43;;;;;;;22.60;8.43;;;;;;;31.44;62.66;100749.72;1747781;80;21865;-59
2021/06/24 10:43:16;;;;;;;19.42;7.10;;;;;;;31.43;62.51;100754.09;1748933;80;21444;-58
2021/06/24 10:45:44;;;;;;;25.23;7.30;;;;;;;31.41;62.32;100750.11;1747904;80;21917;-59
2021/06/24 10:48:33;;;;;;;24.00;7.17;;;;;;;31.35;61.94;100755.04;1748037;80;21044;-58
2021/06/24 10:51:12;;;;;;;25.90;8.03;;;;;;;31.26;61.79;100753.40;1748159;80;21779;-58
2021/06/24 10:53:51;;;;;;;26.55;7.17;;;;;;;31.21;62.49;100756.76;1748500;80;21796;-58
2021/06/24 10:56:29;;;;;;;26.20;7.42;;;;;;;31.21;62.32;100757.27;1746965;80;20940;-58
2021/06/24 10:58:58;;;;;;;22.52;6.72;;;;;;;31.20;62.57;100759.70;1748728;80;20969;-59
2021/06/24 11:01:44;;;;;;;21.45;7.05;;;;;;;31.20;62.79;100761.09;1747322;80;50223;-58
2021/06/24 11:04:32;;;;;;;21.77;7.40;;;;;;;31.21;62.21;100765.58;1747270;80;21091;-58
2021/06/24 11:07:15;;;;;;;30.45;7.62;;;;;;;31.13;62.15;100763.21;1747318;80;21044;-58
2021/06/24 15:43:28;;;;;;;25.00;6.92;;;;;;;32.49;56.63;100627.94;1703006;82;20973;-65
2021/06/24 15:45:58;;;;;;;27.75;6.45;;;;;;;32.46;56.93;100620.02;1727154;81;21405;-65
2021/06/24 15:48:31;;;;;;;26.10;6.22;;;;;;;32.48;56.87;100617.03;1687243;82;20944;-63
2021/06/24 16:32:04;;;;;;;23.38;6.35;;;;;;;32.22;59.91;100602.75;1699776;79;21043;-63
2021/06/24 16:34:35;;;;;;;27.07;7.28;;;;;;;32.18;60.10;100611.14;1685628;81;21937;-62
2021/06/24 16:37:03;;;;;;;23.00;6.35;;;;;;;32.14;60.36;100611.19;1735901;79;21418;-62